createdAt,value
2022-12-27T00:00:16.221Z,49.24
2022-12-27T00:02:45.184Z,49.56
2022-12-27T00:05:16.643Z,48.04
2022-12-27T00:07:45.845Z,49.42
2022-12-27T00:10:14.682Z,49.10
2022-12-27T00:12:44.539Z,49.43
2022-12-27T00:15:13.301Z,50.48
2022-12-27T00:17:42.330Z,49.67
2022-12-27T00:20:12.077Z,50.33
2022-12-27T00:22:41.945Z,49.75
2022-12-27T00:25:11.983Z,49.88
2022-12-27T00:27:41.006Z,50.08
2022-12-27T00:30:10.470Z,49.19
2022-12-27T00:32:40.017Z,47.99
2022-12-27T00:35:09.326Z,48.96
2022-12-27T00:37:38.140Z,47.76
2022-12-27T00:40:07.316Z,48.12
2022-12-27T00:42:36.380Z,48.54
2022-12-27T00:45:07.007Z,47.16
2022-12-27T00:47:36.411Z,48.20
2022-12-27T00:50:06.352Z,48.74
2022-12-27T00:52:36.506Z,49.06
2022-12-27T00:55:06.391Z,49.38
2022-12-27T00:57:36.014Z,50.75
2022-12-27T01:00:10.325Z,50.66
2022-12-27T01:02:40.429Z,50.49
2022-12-27T01:05:10.188Z,51.56
2022-12-27T01:07:38.994Z,49.59
2022-12-27T01:10:08.007Z,48.19
2022-12-27T01:12:38.578Z,47.45
2022-12-27T01:15:10.044Z,46.97
2022-12-27T01:17:39.571Z,47.43
2022-12-27T01:20:09.131Z,48.62
2022-12-27T01:22:38.447Z,48.61
2022-12-27T01:25:08.269Z,49.07
2022-12-27T01:27:38.646Z,49.23
2022-12-27T01:30:08.047Z,48.18
2022-12-27T01:32:37.267Z,49.07
2022-12-27T01:35:06.341Z,49.92
2022-12-27T01:37:35.461Z,51.47
2022-12-27T01:40:04.376Z,51.65
2022-12-27T01:42:51.628Z,50.30
2022-12-27T01:45:29.239Z,51.26
2022-12-27T01:48:33.828Z,52.29
2022-12-27T01:51:06.305Z,50.96
2022-12-27T01:53:43.366Z,50.63
2022-12-27T01:56:27.216Z,51.21
2022-12-27T01:59:06.756Z,52.10
2022-12-27T02:01:41.621Z,51.83
2022-12-27T02:04:19.795Z,52.18
2022-12-27T02:06:50.536Z,51.39
2022-12-27T02:09:37.340Z,52.85
2022-12-27T02:12:09.375Z,53.25
2022-12-27T02:14:48.616Z,53.30
2022-12-27T02:17:26.264Z,52.51
2022-12-27T02:20:13.299Z,52.62
2022-12-27T02:23:18.823Z,51.96
2022-12-27T02:26:24.512Z,51.34
2022-12-27T02:29:12.140Z,50.40
2022-12-27T02:32:12.935Z,49.18
2022-12-27T02:35:16.906Z,50.12
2022-12-27T02:38:28.385Z,48.11
2022-12-27T02:41:17.078Z,47.34
2022-12-27T02:44:05.227Z,45.90
2022-12-27T02:46:53.009Z,46.24
2022-12-27T02:49:43.300Z,45.76
2022-12-27T02:53:10.579Z,44.13
2022-12-27T02:56:29.323Z,43.39
2022-12-27T02:59:13.839Z,42.13
2022-12-27T03:02:36.799Z,41.76
2022-12-27T03:05:44.188Z,42.26
2022-12-27T03:08:25.083Z,42.58
2022-12-27T03:11:20.542Z,42.98
2022-12-27T03:14:20.946Z,43.47
2022-12-27T03:17:01.698Z,44.00
2022-12-27T03:19:57.807Z,43.67
2022-12-27T03:22:49.491Z,44.05
2022-12-27T03:25:30.765Z,44.37
2022-12-27T03:28:28.985Z,44.82
2022-12-27T03:31:27.208Z,45.36
2022-12-27T03:34:05.396Z,45.01
2022-12-27T03:36:54.000Z,44.39
2022-12-27T03:39:37.686Z,44.51
2022-12-27T03:42:36.878Z,44.43
2022-12-27T03:45:06.672Z,45.08
2022-12-27T03:47:48.742Z,46.21
2022-12-27T03:50:43.664Z,45.23
2022-12-27T03:53:24.831Z,44.62
2022-12-27T03:55:54.073Z,45.56
2022-12-27T03:58:23.171Z,46.14
2022-12-27T04:00:52.771Z,45.17
2022-12-27T04:03:21.448Z,44.80
2022-12-27T04:05:50.736Z,44.82
2022-12-27T04:08:37.451Z,43.73
2022-12-27T04:11:25.456Z,44.86
2022-12-27T04:14:12.849Z,45.27
2022-12-27T04:17:00.439Z,44.37
2022-12-27T04:19:47.443Z,44.26
2022-12-27T04:22:35.074Z,43.99
2022-12-27T04:25:23.162Z,43.38
2022-12-27T04:28:14.817Z,43.11
2022-12-27T04:31:01.999Z,43.18
2022-12-27T04:33:49.597Z,44.65
2022-12-27T04:36:18.389Z,43.84
2022-12-27T04:38:47.072Z,44.21
2022-12-27T04:41:34.206Z,42.45
2022-12-27T04:44:21.245Z,43.87
2022-12-27T04:47:09.058Z,43.12
2022-12-27T04:49:56.696Z,42.64
2022-12-27T04:52:45.270Z,43.04
2022-12-27T04:55:20.817Z,43.32
2022-12-27T04:57:51.199Z,43.55
2022-12-27T05:00:40.409Z,41.84
2022-12-27T05:03:19.338Z,41.86
2022-12-27T05:05:49.909Z,41.66
2022-12-27T05:08:40.056Z,40.97
2022-12-27T05:11:29.172Z,41.25
2022-12-27T05:14:02.223Z,40.59
2022-12-27T05:16:37.886Z,39.09
2022-12-27T05:19:09.708Z,38.58
2022-12-27T05:22:03.823Z,39.07
2022-12-27T05:24:52.191Z,39.04
2022-12-27T05:27:22.019Z,37.72
2022-12-27T05:29:50.900Z,35.52
2022-12-27T05:32:20.435Z,37.25
2022-12-27T05:34:50.113Z,36.93
2022-12-27T05:37:19.482Z,36.80
2022-12-27T05:39:48.121Z,35.68
2022-12-27T05:42:17.795Z,34.69
2022-12-27T05:44:46.792Z,34.37
2022-12-27T05:47:15.639Z,35.36
2022-12-27T05:49:44.790Z,37.28
2022-12-27T05:52:14.664Z,36.21
2022-12-27T05:54:43.637Z,36.32
2022-12-27T05:57:12.491Z,36.05
2022-12-27T05:59:42.039Z,35.35
2022-12-27T06:02:11.473Z,35.71
2022-12-27T06:04:40.224Z,36.44
2022-12-27T06:07:10.849Z,37.44
2022-12-27T06:09:40.225Z,37.68
2022-12-27T06:12:09.113Z,38.60
2022-12-27T06:14:38.040Z,38.35
2022-12-27T06:17:06.963Z,36.80
2022-12-27T06:19:38.497Z,37.44
2022-12-27T06:22:07.459Z,37.52
2022-12-27T06:24:36.174Z,37.68
2022-12-27T06:27:09.270Z,38.35
2022-12-27T06:29:38.287Z,38.11
2022-12-27T06:32:07.495Z,36.69
2022-12-27T06:34:37.043Z,34.90
2022-12-27T06:37:06.044Z,33.74
2022-12-27T06:39:35.143Z,33.11
2022-12-27T06:42:03.895Z,32.40
2022-12-27T06:44:33.648Z,31.05
2022-12-27T06:47:04.277Z,30.23
2022-12-27T06:49:33.484Z,29.37
2022-12-27T06:52:02.092Z,27.72
2022-12-27T06:54:31.394Z,30.86
2022-12-27T06:56:59.992Z,28.00
2022-12-27T06:59:29.143Z,27.63
2022-12-27T07:01:57.903Z,25.10
2022-12-27T07:04:26.963Z,28.79
2022-12-27T07:06:56.498Z,26.10
2022-12-27T07:09:27.304Z,26.78
2022-12-27T07:11:56.903Z,25.65
2022-12-27T07:14:25.743Z,25.99
2022-12-27T07:16:55.087Z,27.64
2022-12-27T07:19:24.930Z,27.51
2022-12-27T07:21:54.548Z,27.31
2022-12-27T07:24:23.720Z,26.30
2022-12-27T07:26:53.073Z,22.13
2022-12-27T07:29:22.826Z,25.03
2022-12-27T07:31:51.754Z,22.60
2022-12-27T07:34:23.303Z,24.91
2022-12-27T07:36:52.382Z,24.58
2022-12-27T07:39:21.758Z,25.29
2022-12-27T07:41:51.393Z,25.10
2022-12-27T07:44:20.617Z,24.37
2022-12-27T07:46:54.690Z,24.14
2022-12-27T07:49:24.529Z,23.72
2022-12-27T07:51:53.219Z,24.24
2022-12-27T07:54:23.304Z,23.52
2022-12-27T07:56:52.319Z,23.45
2022-12-27T07:59:22.098Z,23.72
2022-12-27T08:02:06.359Z,24.13
2022-12-27T08:04:39.275Z,22.60
2022-12-27T08:07:16.033Z,22.70
2022-12-27T08:09:47.073Z,22.15
2022-12-27T08:12:16.766Z,23.54
2022-12-27T08:14:45.722Z,22.62
2022-12-27T08:17:22.019Z,22.17
2022-12-27T08:19:52.974Z,20.43
2022-12-27T08:22:23.056Z,21.45
2022-12-27T08:24:53.305Z,21.81
2022-12-27T08:27:27.268Z,21.16
2022-12-27T08:29:56.083Z,23.08
2022-12-27T08:32:44.962Z,22.99
2022-12-27T08:35:50.980Z,22.32
2022-12-27T08:38:05.411Z,21.13
2022-12-27T08:40:34.427Z,20.61
2022-12-27T08:43:03.946Z,21.51
2022-12-27T08:45:32.638Z,21.33
2022-12-27T08:48:02.567Z,23.25
2022-12-27T08:50:32.302Z,21.10
2022-12-27T08:53:03.224Z,19.84
2022-12-27T08:55:33.918Z,21.57
2022-12-27T08:58:13.985Z,21.80
2022-12-27T09:00:45.901Z,21.61
2022-12-27T09:03:21.152Z,19.96
2022-12-27T09:05:51.055Z,21.31
2022-12-27T09:08:19.645Z,21.25
2022-12-27T09:10:48.937Z,22.39
2022-12-27T09:13:18.378Z,22.80
2022-12-27T09:15:47.793Z,21.49
2022-12-27T09:18:16.957Z,20.59
2022-12-27T09:20:46.899Z,22.20
2022-12-27T09:23:16.006Z,19.58
2022-12-27T09:25:46.111Z,19.58
2022-12-27T09:28:15.446Z,20.46
2022-12-27T09:30:48.573Z,19.79
2022-12-27T09:33:17.565Z,20.74
2022-12-27T09:35:46.432Z,20.29
2022-12-27T09:38:16.902Z,22.09
2022-12-27T09:41:01.081Z,21.93
2022-12-27T09:43:38.656Z,21.49
2022-12-27T09:46:15.605Z,22.28
2022-12-27T09:48:44.475Z,21.30
2022-12-27T09:51:22.159Z,21.90
2022-12-27T09:54:11.816Z,21.69
2022-12-27T09:57:17.676Z,24.75
2022-12-27T09:59:54.039Z,23.68
2022-12-27T10:02:26.241Z,24.37
2022-12-27T10:08:03.574Z,24.77
2022-12-27T10:10:56.115Z,25.15
2022-12-27T10:13:28.433Z,25.77
2022-12-27T10:16:18.347Z,24.09
2022-12-27T10:18:59.551Z,24.18
2022-12-27T10:21:31.460Z,25.92
2022-12-27T10:24:25.275Z,24.51
2022-12-27T10:26:56.675Z,25.20
2022-12-27T10:29:27.739Z,24.11
2022-12-27T10:31:57.299Z,24.05
2022-12-27T10:34:26.922Z,25.61
2022-12-27T10:36:55.678Z,26.86
2022-12-27T10:39:33.191Z,25.94
2022-12-27T10:42:07.179Z,26.14
2022-12-27T10:44:36.481Z,26.48
2022-12-27T10:47:05.634Z,26.83
2022-12-27T10:49:35.738Z,26.42
2022-12-27T10:52:24.092Z,26.34
2022-12-27T10:54:55.460Z,27.34
2022-12-27T10:57:37.343Z,27.67
2022-12-27T11:00:17.875Z,27.96
2022-12-27T11:02:56.203Z,30.43
2022-12-27T11:05:30.705Z,30.85
2022-12-27T11:07:59.936Z,31.52
2022-12-27T11:10:35.621Z,31.74
2022-12-27T11:13:07.774Z,32.44
2022-12-27T11:15:39.555Z,33.11
2022-12-27T11:18:21.290Z,33.31
2022-12-27T11:21:00.239Z,34.00
2022-12-27T11:23:37.264Z,34.26
2022-12-27T11:26:07.823Z,35.56
2022-12-27T11:28:42.417Z,35.62
2022-12-27T11:31:21.582Z,36.24
2022-12-27T11:33:53.421Z,36.81
2022-12-27T11:36:45.145Z,38.32
2022-12-27T11:39:45.700Z,38.26
2022-12-27T11:42:41.385Z,38.32
2022-12-27T11:48:44.541Z,39.05
2022-12-27T11:51:30.930Z,40.02
2022-12-27T11:54:20.890Z,39.81
2022-12-27T11:57:01.387Z,40.18
2022-12-27T11:59:41.238Z,40.63
2022-12-27T12:02:26.713Z,41.10
2022-12-27T12:05:23.539Z,40.94
2022-12-27T12:08:18.390Z,40.41
2022-12-27T12:10:47.661Z,40.03
2022-12-27T12:13:46.834Z,40.20
2022-12-27T12:16:41.782Z,42.06
2022-12-27T12:19:29.112Z,42.10
2022-12-27T12:22:16.369Z,42.69
2022-12-27T12:24:51.550Z,42.85
2022-12-27T12:27:38.727Z,42.87
2022-12-27T12:30:28.437Z,42.66
2022-12-27T12:33:16.297Z,43.86
2022-12-27T12:36:09.448Z,44.28
2022-12-27T12:38:56.126Z,41.54
2022-12-27T12:41:52.606Z,42.53
2022-12-27T12:44:53.399Z,42.15
2022-12-27T12:48:00.391Z,42.86
2022-12-27T12:50:48.502Z,42.66
2022-12-27T12:53:32.717Z,39.09
2022-12-27T12:56:39.602Z,37.14
2022-12-27T12:59:43.200Z,37.66
2022-12-27T13:02:58.804Z,37.37
2022-12-27T13:05:34.044Z,35.73
2022-12-27T13:08:24.911Z,35.63
2022-12-27T13:11:03.382Z,35.56
2022-12-27T13:14:28.518Z,35.41
2022-12-27T13:17:17.073Z,35.87
2022-12-27T13:20:01.622Z,34.22
2022-12-27T13:22:33.459Z,35.98
2022-12-27T13:25:28.302Z,35.70
2022-12-27T13:28:02.831Z,37.06
2022-12-27T13:30:43.536Z,37.37
2022-12-27T13:33:32.729Z,38.15
2022-12-27T13:36:17.556Z,39.08
2022-12-27T13:39:14.500Z,38.98
2022-12-27T13:41:45.954Z,39.22
2022-12-27T13:44:34.100Z,40.28
2022-12-27T13:47:39.943Z,41.24
2022-12-27T13:50:42.688Z,41.92
2022-12-27T13:53:38.162Z,42.29
2022-12-27T13:56:52.106Z,42.17
2022-12-27T13:59:28.158Z,42.57
2022-12-27T14:02:31.283Z,43.08
2022-12-27T14:05:03.621Z,43.75
2022-12-27T14:07:42.000Z,43.43
2022-12-27T14:10:27.971Z,43.34
2022-12-27T14:13:23.912Z,43.35
2022-12-27T14:16:14.459Z,44.26
2022-12-27T14:19:07.968Z,43.86
2022-12-27T14:21:51.378Z,44.71
2022-12-27T14:24:43.789Z,44.78
2022-12-27T14:27:53.000Z,44.32
2022-12-27T14:30:47.603Z,44.51
2022-12-27T14:33:39.467Z,44.13
2022-12-27T14:36:42.675Z,45.51
2022-12-27T14:39:26.380Z,44.32
2022-12-27T14:42:34.976Z,42.84
2022-12-27T14:45:40.603Z,43.70
2022-12-27T14:48:28.073Z,42.64
2022-12-27T14:51:02.820Z,43.07
2022-12-27T14:53:40.321Z,42.59
2022-12-27T14:56:31.054Z,43.23
2022-12-27T14:59:15.050Z,43.85
2022-12-27T15:02:06.090Z,43.55
2022-12-27T15:04:58.938Z,43.70
2022-12-27T15:07:51.143Z,43.91
2022-12-27T15:10:57.466Z,43.82
2022-12-27T15:13:48.981Z,42.86
2022-12-27T15:16:50.748Z,43.55
2022-12-27T15:19:31.684Z,43.46
2022-12-27T15:22:08.205Z,43.42
2022-12-27T15:25:08.640Z,43.03
2022-12-27T15:28:02.207Z,42.70
2022-12-27T15:30:40.217Z,41.82
2022-12-27T15:33:20.819Z,41.72
2022-12-27T15:36:05.594Z,41.46
2022-12-27T15:38:44.473Z,40.86
2022-12-27T15:41:55.829Z,40.93
2022-12-27T15:44:44.624Z,40.57
2022-12-27T15:47:25.554Z,40.41
2022-12-27T15:50:18.781Z,39.46
2022-12-27T15:53:01.975Z,38.64
2022-12-27T15:55:57.562Z,38.64
2022-12-27T15:58:27.344Z,38.61
2022-12-27T16:01:25.528Z,38.52
2022-12-27T16:03:56.571Z,38.20
2022-12-27T16:06:35.005Z,37.76
2022-12-27T16:09:22.269Z,37.84
2022-12-27T16:12:06.939Z,37.25
2022-12-27T16:14:39.233Z,37.85
2022-12-27T16:17:32.691Z,37.92
2022-12-27T16:20:13.975Z,38.43
2022-12-27T16:23:07.694Z,38.62
2022-12-27T16:25:42.981Z,38.88
2022-12-27T16:28:18.124Z,38.75
2022-12-27T16:30:49.970Z,38.68
2022-12-27T16:33:41.837Z,38.88
2022-12-27T16:36:17.317Z,39.16
2022-12-27T16:39:03.230Z,38.80
2022-12-27T16:41:50.815Z,39.35
2022-12-27T16:44:25.527Z,39.16
2022-12-27T16:47:03.873Z,39.26
2022-12-27T16:49:45.205Z,39.47
2022-12-27T16:52:16.119Z,39.36
2022-12-27T16:55:22.603Z,38.83
2022-12-27T16:57:53.364Z,39.09
2022-12-27T17:00:43.243Z,39.43
2022-12-27T17:03:37.476Z,39.35
2022-12-27T17:06:37.216Z,39.54
2022-12-27T17:09:12.247Z,39.94
2022-12-27T17:11:53.495Z,40.51
2022-12-27T17:14:31.867Z,40.21
2022-12-27T17:17:11.974Z,39.10
2022-12-27T17:19:47.063Z,39.72
2022-12-27T17:22:19.082Z,40.74
2022-12-27T17:24:50.400Z,40.18
2022-12-27T17:27:36.604Z,40.60
2022-12-27T17:30:24.581Z,40.35
2022-12-27T17:33:30.960Z,39.81
2022-12-27T17:36:24.927Z,40.61
2022-12-27T17:39:31.313Z,40.49
2022-12-27T17:42:22.022Z,37.32
2022-12-27T17:45:03.406Z,37.24
2022-12-27T17:47:38.544Z,34.91
2022-12-27T17:50:18.529Z,35.13
2022-12-27T17:53:39.800Z,34.60
2022-12-27T17:56:30.395Z,37.81
2022-12-27T17:59:25.427Z,38.12
2022-12-27T18:02:17.814Z,34.21
2022-12-27T18:04:51.248Z,35.71
2022-12-27T18:07:32.182Z,34.87
2022-12-27T18:10:27.050Z,34.87
2022-12-27T18:13:00.930Z,35.62
2022-12-27T18:15:45.756Z,35.84
2022-12-27T18:18:24.264Z,36.91
2022-12-27T18:21:01.753Z,36.70
2022-12-27T18:23:31.332Z,35.95
2022-12-27T18:26:17.060Z,35.97
2022-12-27T18:28:46.287Z,37.67
2022-12-27T18:31:38.071Z,37.78
2022-12-27T18:34:30.637Z,38.63
2022-12-27T18:37:01.949Z,38.87
2022-12-27T18:39:33.993Z,38.91
2022-12-27T18:42:32.431Z,38.76
2022-12-27T18:45:10.832Z,38.64
2022-12-27T18:47:47.541Z,38.18
2022-12-27T18:50:21.065Z,38.02
2022-12-27T18:53:01.225Z,35.99
2022-12-27T18:55:32.241Z,34.97
2022-12-27T18:58:07.760Z,34.12
2022-12-27T19:00:52.565Z,33.81
2022-12-27T19:03:22.935Z,34.03
2022-12-27T19:06:01.524Z,34.25
2022-12-27T19:08:38.084Z,34.00
2022-12-27T19:11:08.956Z,33.54
2022-12-27T19:13:51.300Z,33.71
2022-12-27T19:16:32.280Z,34.05
2022-12-27T19:19:18.597Z,35.06
2022-12-27T19:21:47.854Z,34.83
2022-12-27T19:24:28.866Z,34.78
2022-12-27T19:27:01.694Z,36.39
2022-12-27T19:29:37.890Z,35.76
2022-12-27T19:32:12.164Z,36.98
2022-12-27T19:34:47.151Z,36.89
2022-12-27T19:37:16.979Z,36.73
2022-12-27T19:39:48.507Z,37.07
2022-12-27T19:42:27.756Z,37.33
2022-12-27T19:44:56.796Z,38.77
2022-12-27T19:47:27.081Z,39.09
2022-12-27T19:49:56.522Z,39.52
2022-12-27T19:52:28.283Z,39.55
2022-12-27T19:55:12.015Z,39.49
2022-12-27T19:57:41.500Z,40.32
2022-12-27T20:00:18.842Z,39.06
2022-12-27T20:02:48.488Z,39.47
2022-12-27T20:05:17.450Z,38.81
2022-12-27T20:08:17.291Z,37.71
2022-12-27T20:10:46.520Z,37.56
2022-12-27T20:13:15.140Z,39.16
2022-12-27T20:15:45.157Z,39.51
2022-12-27T20:18:13.815Z,38.50
2022-12-27T20:20:42.655Z,38.57
2022-12-27T20:23:12.061Z,39.39
2022-12-27T20:25:44.170Z,39.69
2022-12-27T20:28:14.240Z,39.10
2022-12-27T20:30:44.401Z,39.90
2022-12-27T20:33:14.458Z,38.93
2022-12-27T20:35:43.860Z,39.99
2022-12-27T20:38:14.667Z,39.18
2022-12-27T20:40:44.124Z,40.03
2022-12-27T20:43:12.695Z,39.49
2022-12-27T20:45:41.705Z,40.67
2022-12-27T20:48:10.528Z,40.63
2022-12-27T20:50:41.861Z,39.79
2022-12-27T20:53:11.220Z,38.85
2022-12-27T20:55:39.976Z,38.94
2022-12-27T20:58:08.779Z,38.44
2022-12-27T21:00:42.253Z,38.93
2022-12-27T21:03:11.308Z,39.09
2022-12-27T21:05:39.999Z,39.03
2022-12-27T21:08:09.155Z,38.63
2022-12-27T21:10:38.205Z,38.39
2022-12-27T21:13:44.007Z,39.09
2022-12-27T21:16:33.510Z,38.05
2022-12-27T21:19:06.625Z,38.47
2022-12-27T21:21:38.320Z,38.72
2022-12-27T21:24:11.647Z,39.08
2022-12-27T21:26:41.821Z,38.64
2022-12-27T21:29:11.432Z,40.32
2022-12-27T21:31:41.059Z,39.61
2022-12-27T21:34:10.322Z,39.86
2022-12-27T21:36:39.856Z,39.08
2022-12-27T21:39:09.583Z,40.35
2022-12-27T21:41:41.251Z,39.69
2022-12-27T21:44:10.532Z,39.95
2022-12-27T21:46:42.046Z,39.19
2022-12-27T21:49:14.934Z,40.43
2022-12-27T21:51:46.586Z,40.47
2022-12-27T21:54:17.387Z,39.25
2022-12-27T21:56:46.552Z,39.47
2022-12-27T21:59:15.559Z,38.76
2022-12-27T22:01:50.403Z,38.61
2022-12-27T22:04:24.207Z,38.31
2022-12-27T22:06:53.516Z,38.77
2022-12-27T22:09:22.732Z,38.03
2022-12-27T22:11:51.597Z,38.43
2022-12-27T22:14:25.380Z,38.62
2022-12-27T22:16:54.877Z,38.42
2022-12-27T22:19:23.691Z,38.20
2022-12-27T22:21:53.231Z,37.82
2022-12-27T22:24:21.951Z,37.95
2022-12-27T22:26:51.049Z,38.88
2022-12-27T22:29:20.755Z,38.07
2022-12-27T22:31:50.110Z,37.58
2022-12-27T22:34:18.966Z,37.24
2022-12-27T22:36:52.860Z,36.70
2022-12-27T22:39:21.883Z,36.15
2022-12-27T22:41:50.585Z,35.66
2022-12-27T22:44:20.271Z,34.99
2022-12-27T22:47:24.624Z,34.40
2022-12-27T22:49:38.062Z,34.40
2022-12-27T22:52:07.246Z,34.83
2022-12-27T22:55:04.911Z,35.64
2022-12-27T22:57:25.228Z,35.27
2022-12-27T22:59:54.062Z,35.48
2022-12-27T23:02:23.733Z,34.81
2022-12-27T23:04:52.996Z,35.59
2022-12-27T23:08:03.563Z,35.14
2022-12-27T23:10:12.517Z,35.63
2022-12-27T23:12:41.993Z,36.38
2022-12-27T23:15:11.047Z,36.52
2022-12-27T23:17:40.117Z,35.98
2022-12-27T23:20:09.654Z,36.03
2022-12-27T23:22:39.384Z,37.08
2022-12-27T23:25:08.729Z,36.79
2022-12-27T23:27:38.292Z,36.74
2022-12-27T23:30:07.504Z,37.87
2022-12-27T23:32:36.445Z,38.81
2022-12-27T23:35:05.575Z,38.02
2022-12-27T23:37:34.579Z,39.71
2022-12-27T23:40:03.849Z,39.14
2022-12-27T23:42:32.613Z,39.21
2022-12-27T23:45:01.528Z,39.66
2022-12-27T23:47:30.518Z,39.27
2022-12-27T23:49:59.298Z,38.28
2022-12-27T23:52:28.159Z,37.94
2022-12-27T23:54:56.831Z,38.08
2022-12-27T23:57:26.145Z,38.23
2022-12-27T23:59:56.255Z,38.17
